Big Bear Station Historical Data
Daily Summary for January 03, 2018 Units:  Metric    English   Both
« Previous Day
Next Day »
Daily Weekly Monthly Yearly Custom
  High: Low: Average:
Temperature: 12.6 °C -2.9 °C 4.8 °C
Dew Point: -1.6 °C -8.7 °C -6.7 °C
Humidity: 79 % 26 % 47 %
Wind Speed: 6 km/h 0 km/h 1 km/h
Wind Gust: -1607.7 km/h - -
Wind:- - WNW
Pressure: 1026.3 hPa 798.8 hPa -
Precipitation: 0 mm    
Historical Graphs
 
 
Tabular Data for January 03, 2018
Time Temperature Dew Point Pressure Wind Wind Speed Wind Gust Humidity Rainfall Rate (Hourly)
00:12 -0.4 °C -7.9 °C 1026.3 hPa Calm   -1607.7 km/h 57 % 0 mm
00:27 -0.7 °C -7.9 °C 1026.3 hPa Calm   -1607.7 km/h 58 % 0 mm
00:42 -1 °C -8 °C 1026.3 hPa Calm   -1607.7 km/h 59 % 0 mm
01:13 -1.1 °C -6.3 °C 1026 hPa Calm   -1607.7 km/h 68 % 0 mm
01:28 -1.3 °C -6.6 °C 1026.3 hPa Calm   -1607.7 km/h 67 % 0 mm
01:44 -1.5 °C -6.8 °C 1026.3 hPa Calm   -1607.7 km/h 67 % 0 mm
01:59 -1.6 °C -7.3 °C 1026 hPa Calm   -1607.7 km/h 65 % 0 mm
02:14 -1.8 °C -7.7 °C 1026 hPa Calm   -1607.7 km/h 64 % 0 mm
02:29 -2 °C -6.6 °C 1026 hPa Calm   -1607.7 km/h 71 % 0 mm
03:00 -2.2 °C -7.2 °C 1026 hPa Calm   -1607.7 km/h 69 % 0 mm
03:30 -2.5 °C -7.2 °C 1025.6 hPa Calm   -1607.7 km/h 70 % 0 mm
04:00 -2.6 °C -7.2 °C 1025.6 hPa Calm   -1607.7 km/h 71 % 0 mm
04:16 -2.8 °C -6.9 °C 1025.6 hPa Calm   -1607.7 km/h 73 % 0 mm
04:31 -2.9 °C -6.9 °C 1025.6 hPa Calm   -1607.7 km/h 74 % 0 mm
05:01 -2.8 °C -5.9 °C 1025.6 hPa Calm   -1607.7 km/h 79 % 0 mm
05:17 -2.8 °C -6.2 °C 1025.6 hPa Calm   -1607.7 km/h 77 % 0 mm
05:32 -2.8 °C -6.6 °C 1025.6 hPa Calm   -1607.7 km/h 75 % 0 mm
05:47 -2.1 °C -5.9 °C 1025.6 hPa Calm   -1607.7 km/h 75 % 0 mm
06:02 -2.2 °C -5.9 °C 1025.6 hPa Calm   -1607.7 km/h 76 % 0 mm
06:17 -2 °C -5.8 °C 1025.6 hPa Calm   -1607.7 km/h 75 % 0 mm
07:03 -1.4 °C -5.9 °C 1025.6 hPa Calm   -1607.7 km/h 71 % 0 mm
07:33 -1.2 °C -6.2 °C 1025.6 hPa Calm   -1607.7 km/h 69 % 0 mm
07:49 -1.1 °C -6.4 °C 1025.6 hPa Calm   -1607.7 km/h 67 % 0 mm
08:34 0.1 °C -4.7 °C 1025.6 hPa Calm   -1607.7 km/h 70 % 0 mm
09:05 1.9 °C -3.6 °C 1026 hPa Calm   -1607.7 km/h 67 % 0 mm
09:20 2.3 °C -3.6 °C 1026 hPa Calm   -1607.7 km/h 65 % 0 mm
09:35 2.6 °C -3.5 °C 1026 hPa Calm   -1607.7 km/h 64 % 0 mm
10:06 3.9 °C -2.3 °C 1026 hPa Calm   -1607.7 km/h 64 % 0 mm
10:21 5.1 °C -2 °C 1025.6 hPa Calm   -1607.7 km/h 60 % 0 mm
10:36 5.9 °C -5.4 °C 1025.6 hPa Calm   -1607.7 km/h 44 % 0 mm
10:51 7.5 °C -2.8 °C 1025.6 hPa Calm   -1607.7 km/h 48 % 0 mm
11:06 8.9 °C -1.6 °C 1025.3 hPa Calm   -1607.7 km/h 48 % 0 mm
11:22 10.1 °C -2.6 °C 1024.9 hPa Calm   -1607.7 km/h 41 % 0 mm
11:52 12.2 °C -5.8 °C 1024.6 hPa WNW 5.1 km/h -1607.7 km/h 28 % 0 mm
12:07 12.6 °C -5.9 °C 1024.6 hPa WNW 4.3 km/h -1607.7 km/h 27 % 0 mm
12:22 12.3 °C -6.7 °C 1024.3 hPa South 1.8 km/h -1607.7 km/h 26 % 0 mm
12:38 11.9 °C -6.1 °C 1023.9 hPa WNW 6 km/h -1607.7 km/h 28 % 0 mm
12:53 11.9 °C -6.6 °C 1023.9 hPa WNW 2.7 km/h -1607.7 km/h 27 % 0 mm
13:08 12.2 °C -6.7 °C 1023.9 hPa NW 3.5 km/h -1607.7 km/h 26 % 0 mm
13:38 11.9 °C -6.6 °C 1023.6 hPa NNW 3.5 km/h -1607.7 km/h 27 % 0 mm
14:09 11.2 °C -7.1 °C 1023.9 hPa WNW 4.3 km/h -1607.7 km/h 27 % 0 mm
14:24 11.1 °C -7.2 °C 1023.9 hPa Calm   -1607.7 km/h 27 % 0 mm
14:39 11.2 °C -7.1 °C 1023.6 hPa NW 3.5 km/h -1607.7 km/h 27 % 0 mm
14:54 10.9 °C -7.4 °C 1023.6 hPa NW 2.7 km/h -1607.7 km/h 27 % 0 mm
15:10 10.5 °C -7.3 °C 1023.6 hPa WNW 6 km/h -1607.7 km/h 28 % 0 mm
15:25 10.3 °C -7.4 °C 1023.6 hPa NNW 2.7 km/h -1607.7 km/h 28 % 0 mm
15:40 10.2 °C -7.1 °C 1023.9 hPa NW 3.5 km/h -1607.7 km/h 29 % 0 mm
16:26 9.6 °C -7.2 °C 1023.9 hPa Calm   -1607.7 km/h 30 % 0 mm
16:41 9.5 °C -7.2 °C 1023.9 hPa WNW 1.8 km/h -1607.7 km/h 30 % 0 mm
16:56 9.4 °C -7.3 °C 1023.9 hPa Calm   -1607.7 km/h 30 % 0 mm
17:27 8.9 °C -7.8 °C 1023.9 hPa West 1.8 km/h -1607.7 km/h 30 % 0 mm
17:58 8.6 °C -7.6 °C 1023.9 hPa Calm   -1607.7 km/h 31 % 0 mm
18:13 8.4 °C -7.4 °C 1024.3 hPa Calm   -1607.7 km/h 32 % 0 mm
18:59 8.1 °C -7.6 °C 1024.6 hPa Calm   -1607.7 km/h 32 % 0 mm
19:29 8 °C -7.7 °C 1024.9 hPa WNW 2.7 km/h -1607.7 km/h 32 % 0 mm
19:44 7.8 °C -7.9 °C 1024.9 hPa North 3.5 km/h -1607.7 km/h 32 % 0 mm
20:00 7.5 °C -8.2 °C 1024.9 hPa Calm   -1607.7 km/h 32 % 0 mm
20:15 7.2 °C -8.4 °C 798.8 hPa Calm   -1607.7 km/h 32 % 0 mm
20:46 6.7 °C -8.4 °C 1024.9 hPa Calm   -1607.7 km/h 33 % 0 mm
21:01 6.1 °C -8.2 °C 1024.9 hPa Calm   -1607.7 km/h 35 % 0 mm
21:16 5.6 °C -8.3 °C 1024.9 hPa Calm   -1607.7 km/h 36 % 0 mm
21:31 5.4 °C -8.5 °C 1024.9 hPa Calm   -1607.7 km/h 36 % 0 mm
21:47 5.2 °C -8.7 °C 1024.9 hPa Calm   -1607.7 km/h 36 % 0 mm
22:02 5.7 °C -8.6 °C 1025.3 hPa Calm   -1607.7 km/h 35 % 0 mm
22:17 6.7 °C -8.1 °C 1025.3 hPa Calm   -1607.7 km/h 34 % 0 mm
22:32 6.7 °C -8.1 °C 1025.3 hPa WSW 6 km/h -1607.7 km/h 34 % 0 mm
22:47 6.6 °C -8.2 °C 799.1 hPa Calm   -1607.7 km/h 34 % 0 mm
23:03 6.7 °C -8.4 °C 1025.3 hPa Calm   -1607.7 km/h 33 % 0 mm
23:19 6.7 °C -8.4 °C 1025.3 hPa ESE 2.7 km/h -1607.7 km/h 33 % 0 mm
23:34 6.2 °C -8.5 °C 1024.9 hPa Calm   -1607.7 km/h 34 % 0 mm
23:49 5.9 °C -8.4 °C 1024.9 hPa Calm   -1607.7 km/h 35 % 0 mm
Big Bear CA Weather
Compliments of Weather Underground - 1.25 mb